createdAt,value
2022-12-13T00:01:16.175Z,0.96
2022-12-13T00:03:43.287Z,0.96
2022-12-13T00:06:11.356Z,0.96
2022-12-13T00:08:38.771Z,0.98
2022-12-13T00:11:07.512Z,0.98
2022-12-13T00:13:34.621Z,0.98
2022-12-13T00:16:04.669Z,0.99
2022-12-13T00:18:32.092Z,0.99
2022-12-13T00:20:59.077Z,0.99
2022-12-13T00:23:26.131Z,1.01
2022-12-13T00:25:52.650Z,1.00
2022-12-13T00:28:19.158Z,1.01
2022-12-13T00:30:45.705Z,1.03
2022-12-13T00:33:12.242Z,1.02
2022-12-13T00:35:42.734Z,1.02
2022-12-13T00:38:10.332Z,1.01
2022-12-13T00:40:36.828Z,1.01
2022-12-13T00:43:03.328Z,1.03
2022-12-13T00:45:29.833Z,1.02
2022-12-13T00:47:56.376Z,1.02
2022-12-13T00:50:22.863Z,1.05
2022-12-13T00:52:49.413Z,1.04
2022-12-13T00:55:16.393Z,1.05
2022-12-13T00:57:43.391Z,1.08
2022-12-13T01:00:10.815Z,1.08
2022-12-13T01:02:40.058Z,1.06
2022-12-13T01:05:06.875Z,1.06
2022-12-13T01:07:33.469Z,1.08
2022-12-13T01:09:59.956Z,1.07
2022-12-13T01:12:26.572Z,1.07
2022-12-13T01:14:56.040Z,1.09
2022-12-13T01:17:22.816Z,1.09
2022-12-13T01:19:49.297Z,1.08
2022-12-13T01:22:16.602Z,1.10
2022-12-13T01:24:43.405Z,1.11
2022-12-13T01:27:10.153Z,1.11
2022-12-13T01:29:37.475Z,1.10
2022-12-13T01:32:04.216Z,1.12
2022-12-13T01:34:30.710Z,1.12
2022-12-13T01:36:59.023Z,1.11
2022-12-13T01:39:27.020Z,1.12
2022-12-13T01:42:03.504Z,1.13
2022-12-13T01:44:58.243Z,1.13
2022-12-13T01:47:29.697Z,1.13
2022-12-13T01:49:59.927Z,1.13
2022-12-13T01:52:30.210Z,1.13
2022-12-13T01:55:03.714Z,1.13
2022-12-13T01:57:32.968Z,1.11
2022-12-13T01:59:59.846Z,1.14
2022-12-13T02:02:26.707Z,1.14
2022-12-13T02:04:59.970Z,1.16
2022-12-13T02:07:33.642Z,1.16
2022-12-13T02:10:02.926Z,1.14
2022-12-13T02:12:32.199Z,1.15
2022-12-13T02:15:02.563Z,1.18
2022-12-13T02:18:02.651Z,1.19
2022-12-13T02:20:43.536Z,1.19
2022-12-13T02:23:26.638Z,1.16
2022-12-13T02:26:04.968Z,1.17
2022-12-13T02:28:40.487Z,1.19
2022-12-13T02:31:12.635Z,1.16
2022-12-13T02:33:42.375Z,1.18
2022-12-13T02:36:17.550Z,1.19
2022-12-13T02:39:01.539Z,1.17
2022-12-13T02:41:28.012Z,1.19
2022-12-13T02:44:05.161Z,1.17
2022-12-13T02:46:53.247Z,1.20
2022-12-13T02:49:22.171Z,1.19
2022-12-13T02:51:51.148Z,1.18
2022-12-13T02:54:17.719Z,1.20
2022-12-13T02:56:54.513Z,1.20
2022-12-13T02:59:23.139Z,1.20
2022-12-13T03:02:11.310Z,1.19
2022-12-13T03:05:04.090Z,1.22
2022-12-13T03:07:42.239Z,1.21
2022-12-13T03:10:27.353Z,1.20
2022-12-13T03:13:20.415Z,1.19
2022-12-13T03:15:58.700Z,1.18
2022-12-13T03:18:28.305Z,1.19
2022-12-13T03:21:02.177Z,1.18
2022-12-13T03:23:28.907Z,1.21
2022-12-13T03:25:59.501Z,1.18
2022-12-13T03:28:25.993Z,1.21
2022-12-13T03:30:52.930Z,1.19
2022-12-13T03:33:19.456Z,1.21
2022-12-13T03:35:46.241Z,1.21
2022-12-13T03:38:21.324Z,1.21
2022-12-13T03:41:12.855Z,1.21
2022-12-13T03:43:40.465Z,1.21
2022-12-13T03:46:08.241Z,1.22
2022-12-13T03:48:35.451Z,1.22
2022-12-13T03:51:02.882Z,1.21
2022-12-13T03:53:32.483Z,1.21
2022-12-13T03:56:05.522Z,1.22
2022-12-13T03:58:35.928Z,1.20
2022-12-13T04:01:08.276Z,1.21
2022-12-13T04:03:35.872Z,1.22
2022-12-13T04:06:02.796Z,1.21
2022-12-13T04:08:29.347Z,1.22
2022-12-13T04:10:55.879Z,1.22
2022-12-13T04:13:34.638Z,1.21
2022-12-13T04:16:02.691Z,1.22
2022-12-13T04:18:29.462Z,1.22
2022-12-13T04:20:57.430Z,1.23
2022-12-13T04:23:24.322Z,1.21
2022-12-13T04:25:51.285Z,1.22
2022-12-13T04:28:21.555Z,1.21
2022-12-13T04:30:53.198Z,1.23
2022-12-13T04:33:22.002Z,1.24
2022-12-13T04:35:49.468Z,1.24
2022-12-13T04:38:16.265Z,1.24
2022-12-13T04:40:42.816Z,1.24
2022-12-13T04:43:09.521Z,1.24
2022-12-13T04:45:36.073Z,1.23
2022-12-13T04:48:02.672Z,1.23
2022-12-13T04:50:29.244Z,1.25
2022-12-13T04:52:55.738Z,1.24
2022-12-13T04:55:22.270Z,1.24
2022-12-13T04:57:49.436Z,1.23
2022-12-13T05:00:16.789Z,1.23
2022-12-13T05:02:43.403Z,1.23
2022-12-13T05:05:11.267Z,1.24
2022-12-13T05:07:42.100Z,1.24
2022-12-13T05:10:10.308Z,1.24
2022-12-13T05:12:36.795Z,1.24
2022-12-13T05:15:03.529Z,1.25
2022-12-13T05:17:30.101Z,1.24
2022-12-13T05:19:56.630Z,1.24
2022-12-13T05:22:23.177Z,1.26
2022-12-13T05:24:49.773Z,1.26
2022-12-13T05:27:24.682Z,1.28
2022-12-13T05:30:02.270Z,1.25
2022-12-13T05:32:42.665Z,1.26
2022-12-13T05:35:22.919Z,1.24
2022-12-13T05:37:53.979Z,1.26
2022-12-13T05:40:23.047Z,1.26
2022-12-13T05:42:49.715Z,1.26
2022-12-13T05:45:18.556Z,1.23
2022-12-13T05:47:45.725Z,1.26
2022-12-13T05:50:14.164Z,1.28
2022-12-13T05:52:42.066Z,1.28
2022-12-13T05:55:09.124Z,1.24
2022-12-13T05:57:35.823Z,1.25
2022-12-13T06:00:04.604Z,1.26
2022-12-13T06:02:31.254Z,1.28
2022-12-13T06:04:57.906Z,1.29
2022-12-13T06:07:24.458Z,1.28
2022-12-13T06:09:50.949Z,1.29
2022-12-13T06:12:31.897Z,1.30
2022-12-13T06:15:01.097Z,1.28
2022-12-13T06:17:35.444Z,1.30
2022-12-13T06:20:02.353Z,1.30
2022-12-13T06:22:49.151Z,1.30
2022-12-13T06:25:30.538Z,1.31
2022-12-13T06:28:00.921Z,1.32
2022-12-13T06:30:29.204Z,1.32
2022-12-13T06:32:56.347Z,1.29
2022-12-13T06:35:29.835Z,1.30
2022-12-13T06:38:00.992Z,1.30
2022-12-13T06:40:28.808Z,1.30
2022-12-13T06:42:55.298Z,1.29
2022-12-13T06:45:22.001Z,1.31
2022-12-13T06:47:48.509Z,1.30
2022-12-13T06:50:15.181Z,1.28
2022-12-13T06:52:41.693Z,1.30
2022-12-13T06:55:08.708Z,1.29
2022-12-13T06:57:35.248Z,1.30
2022-12-13T07:00:03.628Z,1.31
2022-12-13T07:02:32.626Z,1.31
2022-12-13T07:04:59.283Z,1.29
2022-12-13T07:07:26.341Z,1.31
2022-12-13T07:09:53.603Z,1.30
2022-12-13T07:12:21.096Z,1.31
2022-12-13T07:14:48.690Z,1.31
2022-12-13T07:17:32.423Z,1.31
2022-12-13T07:20:01.028Z,1.31
2022-12-13T07:22:28.340Z,1.30
2022-12-13T07:24:54.828Z,1.31
2022-12-13T07:27:21.327Z,1.31
2022-12-13T07:29:47.843Z,1.30
2022-12-13T07:32:14.544Z,1.31
2022-12-13T07:34:41.147Z,1.32
2022-12-13T07:37:09.160Z,1.31
2022-12-13T07:40:01.084Z,1.31
2022-12-13T07:42:29.767Z,1.31
2022-12-13T07:44:56.234Z,1.31
2022-12-13T07:47:23.441Z,1.30
2022-12-13T07:49:49.984Z,1.30
2022-12-13T07:52:17.393Z,1.31
2022-12-13T07:54:43.921Z,1.31
2022-12-13T07:57:10.393Z,1.31
2022-12-13T07:59:36.966Z,1.31
2022-12-13T08:02:03.548Z,1.30
2022-12-13T08:04:37.501Z,1.31
2022-12-13T08:07:09.105Z,1.30
2022-12-13T08:09:36.115Z,1.32
2022-12-13T08:12:03.291Z,1.31
2022-12-13T08:14:29.853Z,1.31
2022-12-13T08:16:56.477Z,1.31
2022-12-13T08:19:23.305Z,1.30
2022-12-13T08:21:55.565Z,1.29
2022-12-13T08:24:30.750Z,1.30
2022-12-13T08:27:02.769Z,1.29
2022-12-13T08:29:33.406Z,1.31
2022-12-13T08:32:10.304Z,1.31
2022-12-13T08:34:36.793Z,1.30
2022-12-13T08:37:04.492Z,1.31
2022-12-13T08:39:35.389Z,1.31
2022-12-13T08:42:15.008Z,1.31
2022-12-13T08:44:48.148Z,1.31
2022-12-13T08:47:24.432Z,1.30
2022-12-13T08:50:01.277Z,1.29
2022-12-13T08:52:30.598Z,1.30
2022-12-13T08:54:57.134Z,1.30
2022-12-13T08:57:23.715Z,1.29
2022-12-13T08:59:50.205Z,1.31
2022-12-13T09:02:17.257Z,1.30
2022-12-13T09:04:44.456Z,1.31
2022-12-13T09:07:11.092Z,1.31
2022-12-13T09:09:37.813Z,1.31
2022-12-13T09:12:11.130Z,1.30
2022-12-13T09:14:51.865Z,1.32
2022-12-13T09:17:24.270Z,1.32
2022-12-13T09:19:57.995Z,1.33
2022-12-13T09:22:32.774Z,1.32
2022-12-13T09:25:02.879Z,1.33
2022-12-13T09:27:30.928Z,1.36
2022-12-13T09:30:08.122Z,1.34
2022-12-13T09:32:34.642Z,1.34
2022-12-13T09:35:01.117Z,1.33
2022-12-13T09:37:29.200Z,1.35
2022-12-13T09:39:55.766Z,1.35
2022-12-13T09:42:30.506Z,1.36
2022-12-13T09:45:06.414Z,1.36
2022-12-13T09:47:51.509Z,1.37
2022-12-13T09:50:37.456Z,1.37
2022-12-13T09:53:12.002Z,1.37
2022-12-13T09:55:42.853Z,1.39
2022-12-13T09:58:18.090Z,1.38
2022-12-13T10:00:47.276Z,1.41
2022-12-13T10:03:15.919Z,1.41
2022-12-13T10:05:46.073Z,1.40
2022-12-13T10:08:16.165Z,1.39
2022-12-13T10:10:43.833Z,1.38
2022-12-13T10:13:25.193Z,1.36
2022-12-13T10:15:57.217Z,1.34
2022-12-13T10:18:33.812Z,1.33
2022-12-13T10:21:04.933Z,1.33
2022-12-13T10:23:42.670Z,1.35
2022-12-13T10:26:24.317Z,1.36
2022-12-13T10:29:01.973Z,1.41
2022-12-13T10:31:28.607Z,1.45
2022-12-13T10:33:56.973Z,1.54
2022-12-13T10:36:34.516Z,1.60
2022-12-13T10:39:01.105Z,1.66
2022-12-13T10:41:29.456Z,1.71
2022-12-13T10:44:20.359Z,1.77
2022-12-13T10:46:53.116Z,1.80
2022-12-13T10:49:23.707Z,1.84
2022-12-13T10:51:52.071Z,1.86
2022-12-13T10:54:38.851Z,1.91
2022-12-13T10:57:15.681Z,1.93
2022-12-13T10:59:44.198Z,1.97
2022-12-13T11:02:31.369Z,2.00
2022-12-13T11:05:16.301Z,2.00
2022-12-13T11:07:50.293Z,2.03
2022-12-13T11:10:16.887Z,2.03
2022-12-13T11:12:43.638Z,2.05
2022-12-13T11:15:23.154Z,2.10
2022-12-13T11:17:55.751Z,2.13
2022-12-13T11:20:27.050Z,2.18
2022-12-13T11:23:12.502Z,2.25
2022-12-13T11:25:45.127Z,2.28
2022-12-13T11:28:27.224Z,2.32
2022-12-13T11:31:20.030Z,2.35
2022-12-13T11:34:12.093Z,2.33
2022-12-13T11:36:54.577Z,2.35
2022-12-13T11:39:29.486Z,2.34
2022-12-13T11:42:31.463Z,2.39
2022-12-13T11:45:07.108Z,2.44
2022-12-13T11:47:58.428Z,2.54
2022-12-13T11:50:56.610Z,2.66
2022-12-13T11:53:23.666Z,2.74
2022-12-13T11:56:19.194Z,2.88
2022-12-13T11:59:06.919Z,2.98
2022-12-13T12:01:47.881Z,3.09
2022-12-13T12:04:45.937Z,3.19
2022-12-13T12:07:32.215Z,3.28
2022-12-13T12:10:04.261Z,3.32
2022-12-13T12:12:36.136Z,3.35
2022-12-13T12:15:15.804Z,3.34
2022-12-13T12:17:44.176Z,3.38
2022-12-13T12:20:23.266Z,3.40
2022-12-13T12:23:26.285Z,3.40
2022-12-13T12:25:58.339Z,3.39
2022-12-13T12:28:49.968Z,3.38
2022-12-13T12:32:02.021Z,3.35
2022-12-13T12:34:40.555Z,3.33
2022-12-13T12:37:14.370Z,3.31
2022-12-13T12:39:51.375Z,3.28
2022-12-13T12:42:36.609Z,3.25
2022-12-13T12:48:58.473Z,3.22
2022-12-13T12:51:59.634Z,3.21
2022-12-13T12:54:35.380Z,3.19
2022-12-13T12:57:34.297Z,3.19
2022-12-13T13:00:12.200Z,3.15
2022-12-13T13:03:18.794Z,3.15
2022-12-13T13:06:01.898Z,3.13
2022-12-13T13:08:43.734Z,3.13
2022-12-13T13:11:23.809Z,3.11
2022-12-13T13:14:01.931Z,3.10
2022-12-13T13:16:41.315Z,3.09
2022-12-13T13:19:10.765Z,3.07
2022-12-13T13:21:50.637Z,3.06
2022-12-13T13:24:19.908Z,3.02
2022-12-13T13:26:50.001Z,2.99
2022-12-13T13:29:27.557Z,2.99
2022-12-13T13:32:28.104Z,2.95
2022-12-13T13:35:36.162Z,2.91
2022-12-13T13:38:05.138Z,2.88
2022-12-13T13:40:37.322Z,2.85
2022-12-13T13:43:03.830Z,2.83
2022-12-13T13:45:31.384Z,2.76
2022-12-13T13:48:14.467Z,2.71
2022-12-13T13:51:26.751Z,2.70
2022-12-13T13:54:30.912Z,2.67
2022-12-13T13:57:28.928Z,2.62
2022-12-13T14:00:51.328Z,2.57
2022-12-13T14:03:37.201Z,2.54
2022-12-13T14:06:16.164Z,2.51
2022-12-13T14:08:50.406Z,2.47
2022-12-13T14:11:25.693Z,2.43
2022-12-13T14:14:26.983Z,2.38
2022-12-13T14:17:33.966Z,2.33
2022-12-13T14:20:29.893Z,2.29
2022-12-13T14:23:24.828Z,2.25
2022-12-13T14:26:14.321Z,2.20
2022-12-13T14:29:02.959Z,2.14
2022-12-13T14:31:39.253Z,2.09
2022-12-13T14:34:07.814Z,2.03
2022-12-13T14:36:36.484Z,1.98
2022-12-13T14:39:24.608Z,1.92
2022-12-13T14:41:57.017Z,1.86
2022-12-13T14:44:30.229Z,1.78
2022-12-13T14:47:00.708Z,1.76
2022-12-13T14:49:30.978Z,1.72
2022-12-13T14:52:03.861Z,1.71
2022-12-13T14:54:47.328Z,1.64
2022-12-13T14:57:17.582Z,1.61
2022-12-13T14:59:54.359Z,1.56
2022-12-13T15:02:32.946Z,1.49
2022-12-13T15:05:02.047Z,1.46
2022-12-13T15:07:41.325Z,1.44
2022-12-13T15:10:24.624Z,1.37
2022-12-13T15:12:53.496Z,1.33
2022-12-13T15:15:54.098Z,1.29
2022-12-13T15:18:23.798Z,1.25
2022-12-13T15:20:52.469Z,1.22
2022-12-13T15:23:49.137Z,1.20
2022-12-13T15:26:28.665Z,1.14
2022-12-13T15:29:09.642Z,1.11
2022-12-13T15:31:37.978Z,1.07
2022-12-13T15:34:30.817Z,1.02
2022-12-13T15:37:03.590Z,0.98
2022-12-13T15:39:33.734Z,0.95
2022-12-13T15:42:00.292Z,0.93
2022-12-13T15:44:39.202Z,0.92
2022-12-13T15:47:11.243Z,0.92
2022-12-13T15:49:44.174Z,0.94
2022-12-13T15:52:26.511Z,0.95
2022-12-13T15:55:00.170Z,0.98
2022-12-13T15:57:29.617Z,0.96
2022-12-13T16:00:08.084Z,0.96
2022-12-13T16:02:35.609Z,0.99
2022-12-13T16:05:07.868Z,0.96
2022-12-13T16:07:37.993Z,0.96
2022-12-13T16:10:05.516Z,0.98
2022-12-13T16:12:48.822Z,0.95
2022-12-13T16:15:29.773Z,0.94
2022-12-13T16:18:14.621Z,0.95
2022-12-13T16:20:41.588Z,0.96
2022-12-13T16:23:08.615Z,0.93
2022-12-13T16:25:35.740Z,0.94
2022-12-13T16:28:02.277Z,0.90
2022-12-13T16:30:54.688Z,0.89
2022-12-13T16:33:27.325Z,0.89
2022-12-13T16:35:55.584Z,0.89
2022-12-13T16:38:26.502Z,0.89
2022-12-13T16:40:56.102Z,0.90
2022-12-13T16:43:33.016Z,0.87
2022-12-13T16:47:17.278Z,0.90
2022-12-13T16:48:50.613Z,0.87
2022-12-13T16:51:18.143Z,0.87
2022-12-13T16:53:44.935Z,0.90
2022-12-13T16:56:14.724Z,0.86
2022-12-13T16:58:46.121Z,0.85
2022-12-13T17:01:20.054Z,0.83
2022-12-13T17:03:46.781Z,0.84
2022-12-13T17:06:15.933Z,0.84
2022-12-13T17:08:42.765Z,0.80
2022-12-13T17:11:14.679Z,0.81
2022-12-13T17:13:44.967Z,0.79
2022-12-13T17:16:11.629Z,0.79
2022-12-13T17:18:38.196Z,0.79
2022-12-13T17:21:10.188Z,0.77
2022-12-13T17:23:37.109Z,0.74
2022-12-13T17:26:08.572Z,0.70
2022-12-13T17:28:35.275Z,0.67
2022-12-13T17:31:12.091Z,0.65
2022-12-13T17:33:39.677Z,0.65
2022-12-13T17:36:08.398Z,0.61
2022-12-13T17:38:35.454Z,0.60
2022-12-13T17:41:02.329Z,0.62
2022-12-13T17:43:36.062Z,0.60
2022-12-13T17:46:05.561Z,0.57
2022-12-13T17:48:39.796Z,0.58
2022-12-13T17:51:08.712Z,0.58
2022-12-13T17:53:36.977Z,0.56
2022-12-13T17:56:06.535Z,0.56
2022-12-13T17:58:34.046Z,0.55
2022-12-13T18:01:10.601Z,0.54
2022-12-13T18:03:37.200Z,0.54
2022-12-13T18:06:03.858Z,0.55
2022-12-13T18:08:34.301Z,0.50
2022-12-13T18:13:47.438Z,0.51
2022-12-13T18:16:16.545Z,0.51
2022-12-13T18:18:43.633Z,0.49
2022-12-13T18:21:21.796Z,0.50
2022-12-13T18:23:55.175Z,0.51
2022-12-13T18:26:24.697Z,0.50
2022-12-13T18:28:52.053Z,0.48
2022-12-13T18:31:22.031Z,0.46
2022-12-13T18:33:49.648Z,0.45
2022-12-13T18:36:16.892Z,0.44
2022-12-13T18:38:44.260Z,0.46
2022-12-13T18:41:16.550Z,0.45
2022-12-13T18:43:44.194Z,0.44
2022-12-13T18:46:12.593Z,0.41
2022-12-13T18:48:39.574Z,0.42
2022-12-13T18:51:07.851Z,0.43
2022-12-13T18:53:35.167Z,0.41
2022-12-13T18:56:16.071Z,0.41
2022-12-13T18:58:45.667Z,0.39
2022-12-13T19:01:13.803Z,0.38
2022-12-13T19:03:41.851Z,0.38
2022-12-13T19:06:08.444Z,0.39
2022-12-13T19:08:36.463Z,0.38
2022-12-13T19:11:03.672Z,0.38
2022-12-13T19:13:31.915Z,0.35
2022-12-13T19:16:05.649Z,0.36
2022-12-13T19:18:32.348Z,0.34
2022-12-13T19:20:59.000Z,0.35
2022-12-13T19:23:26.127Z,0.34
2022-12-13T19:25:52.883Z,0.33
2022-12-13T19:28:19.981Z,0.31
2022-12-13T19:30:47.762Z,0.30
2022-12-13T19:33:15.054Z,0.28
2022-12-13T19:35:44.677Z,0.28
2022-12-13T19:38:12.344Z,0.29
2022-12-13T19:40:40.454Z,0.27
2022-12-13T19:43:07.160Z,0.29
2022-12-13T19:45:34.041Z,0.28
2022-12-13T19:48:00.586Z,0.26
2022-12-13T19:50:28.731Z,0.26
2022-12-13T19:52:55.373Z,0.28
2022-12-13T19:55:22.113Z,0.25
2022-12-13T19:57:48.709Z,0.24
2022-12-13T20:00:15.823Z,0.24
2022-12-13T20:02:42.459Z,0.24
2022-12-13T20:05:09.533Z,0.24
2022-12-13T20:07:36.302Z,0.22
2022-12-13T20:10:04.552Z,0.22
2022-12-13T20:12:34.185Z,0.20
2022-12-13T20:15:05.359Z,0.19
2022-12-13T20:17:32.193Z,0.20
2022-12-13T20:19:58.806Z,0.18
2022-12-13T20:22:25.434Z,0.18
2022-12-13T20:24:51.998Z,0.15
2022-12-13T20:27:19.930Z,0.15
2022-12-13T20:29:48.684Z,0.14
2022-12-13T20:32:15.420Z,0.14
2022-12-13T20:34:42.161Z,0.13
2022-12-13T20:37:08.810Z,0.14
2022-12-13T20:39:35.354Z,0.12
2022-12-13T20:42:01.862Z,0.13
2022-12-13T20:44:30.824Z,0.12
2022-12-13T20:46:57.489Z,0.12
2022-12-13T20:49:24.068Z,0.12
2022-12-13T20:51:50.703Z,0.10
2022-12-13T20:54:17.422Z,0.10
2022-12-13T20:56:43.904Z,0.09
2022-12-13T20:59:12.954Z,0.09
2022-12-13T21:01:41.049Z,0.09
2022-12-13T21:04:09.501Z,0.10
2022-12-13T21:06:37.746Z,0.09
2022-12-13T21:09:05.852Z,0.07
2022-12-13T21:11:34.976Z,0.08
2022-12-13T21:14:28.547Z,0.06
2022-12-13T21:16:57.303Z,0.06
2022-12-13T21:19:30.945Z,0.06
2022-12-13T21:22:01.392Z,0.05
2022-12-13T21:24:29.464Z,0.05
2022-12-13T21:26:56.635Z,0.04
2022-12-13T21:29:23.636Z,0.05
2022-12-13T21:31:50.462Z,0.05
2022-12-13T21:34:18.558Z,0.02
2022-12-13T21:36:47.408Z,0.03
2022-12-13T21:39:18.672Z,0.02
2022-12-13T21:41:45.611Z,0.02
2022-12-13T21:44:15.533Z,-0.01
2022-12-13T21:49:29.803Z,0.01
2022-12-13T21:51:56.307Z,-0.01
2022-12-13T21:54:22.944Z,-0.01
2022-12-13T21:57:09.147Z,-0.02
2022-12-13T21:59:35.743Z,-0.03
2022-12-13T22:02:20.419Z,-0.04
2022-12-13T22:04:53.943Z,-0.04
2022-12-13T22:07:21.752Z,-0.04
2022-12-13T22:09:48.915Z,-0.04
2022-12-13T22:12:22.212Z,-0.06
2022-12-13T22:14:49.876Z,-0.05
2022-12-13T22:17:17.566Z,-0.06
2022-12-13T22:19:44.680Z,-0.07
2022-12-13T22:22:15.833Z,-0.08
2022-12-13T22:24:42.354Z,-0.09
2022-12-13T22:27:08.900Z,-0.10
2022-12-13T22:29:35.454Z,-0.12
2022-12-13T22:32:02.510Z,-0.12
2022-12-13T22:34:29.147Z,-0.14
2022-12-13T22:36:55.644Z,-0.14
2022-12-13T22:39:23.739Z,-0.16
2022-12-13T22:41:51.262Z,-0.18
2022-12-13T22:44:20.550Z,-0.20
2022-12-13T22:46:47.947Z,-0.19
2022-12-13T22:49:15.202Z,-0.20
2022-12-13T22:51:42.168Z,-0.21
2022-12-13T22:54:09.113Z,-0.21
2022-12-13T22:56:35.669Z,-0.24
2022-12-13T22:59:04.272Z,-0.24
2022-12-13T23:01:33.876Z,-0.24
2022-12-13T23:04:01.016Z,-0.25
2022-12-13T23:06:38.184Z,-0.23
2022-12-13T23:09:08.362Z,-0.26
2022-12-13T23:11:54.008Z,-0.27
2022-12-13T23:14:27.051Z,-0.27
2022-12-13T23:16:53.648Z,-0.28
2022-12-13T23:22:08.567Z,-0.29
2022-12-13T23:24:35.228Z,-0.28
2022-12-13T23:27:01.705Z,-0.28
2022-12-13T23:29:28.251Z,-0.31
2022-12-13T23:31:54.741Z,-0.32
2022-12-13T23:34:21.401Z,-0.31
2022-12-13T23:36:47.894Z,-0.33
2022-12-13T23:39:14.369Z,-0.32
2022-12-13T23:41:40.918Z,-0.31
2022-12-13T23:44:07.612Z,-0.32
2022-12-13T23:46:36.219Z,-0.32
2022-12-13T23:49:05.362Z,-0.31
2022-12-13T23:51:33.072Z,-0.30
2022-12-13T23:53:59.638Z,-0.31
2022-12-13T23:56:26.567Z,-0.29
2022-12-13T23:58:53.185Z,-0.30
